createdAt,value
2022-08-17T00:03:49.068Z,11.24
2022-08-17T00:18:58.430Z,10.47
2022-08-17T00:33:48.617Z,10.71
2022-08-17T00:48:48.652Z,11.03
2022-08-17T01:03:49.123Z,11.1
2022-08-17T01:18:48.739Z,10.84
2022-08-17T01:33:49.264Z,11.01
2022-08-17T01:48:48.508Z,11.59
2022-08-17T02:03:53.291Z,11.28
2022-08-17T02:18:48.764Z,10.62
2022-08-17T02:33:56.931Z,11.27
2022-08-17T02:48:53.841Z,10.58
2022-08-17T03:03:48.656Z,10.63
2022-08-17T03:18:48.528Z,10.7
2022-08-17T03:33:48.858Z,12.39
2022-08-17T03:48:48.754Z,14.84
2022-08-17T04:03:48.588Z,11.4
2022-08-17T04:18:48.518Z,12.48
2022-08-17T04:33:48.445Z,15.04
2022-08-17T04:48:48.445Z,11.85
2022-08-17T05:03:49.179Z,10.57
2022-08-17T05:18:49.099Z,10.11
2022-08-17T05:33:48.856Z,11.34
2022-08-17T05:48:48.465Z,10.22
2022-08-17T06:03:48.868Z,9.88
2022-08-17T06:18:49.221Z,9.58
2022-08-17T06:33:48.494Z,9.67
2022-08-17T06:48:48.668Z,8.8
2022-08-17T07:03:49.201Z,9.12
2022-08-17T07:18:49.033Z,8.75
2022-08-17T07:33:48.854Z,8.78
2022-08-17T07:48:49.128Z,8.56
2022-08-17T08:03:49.404Z,8.33
2022-08-17T08:18:53.955Z,8.91
2022-08-17T08:33:48.412Z,8.11
2022-08-17T08:48:53.622Z,8.63
2022-08-17T09:03:52.984Z,9.46
2022-08-17T09:19:02.067Z,8.31
2022-08-17T09:33:48.826Z,9.19
2022-08-17T09:48:48.980Z,9.13
2022-08-17T10:03:54.101Z,10.03
2022-08-17T10:18:49.215Z,9.18
2022-08-17T10:33:48.746Z,9.41
2022-08-17T10:48:49.022Z,9.51
2022-08-17T11:03:49.033Z,9.77
2022-08-17T11:18:48.625Z,10.46
2022-08-17T11:33:49.176Z,11.21
2022-08-17T11:48:48.879Z,12.01
2022-08-17T12:03:54.573Z,11.27
2022-08-17T12:18:49.277Z,12.86
2022-08-17T12:33:49.029Z,12.62
2022-08-17T12:48:59.479Z,13.69
2022-08-17T13:03:49.062Z,13.6
2022-08-17T13:18:49.291Z,14.18
2022-08-17T13:33:48.408Z,13.83
2022-08-17T13:48:48.986Z,14.47
2022-08-17T14:03:51.391Z,14.2
2022-08-17T14:18:56.498Z,14.67
2022-08-17T14:33:48.873Z,14.5
2022-08-17T14:48:50.801Z,15.1
2022-08-17T15:03:48.818Z,15.47
2022-08-17T15:18:48.700Z,15.31
2022-08-17T15:33:48.760Z,15.82
2022-08-17T15:48:48.795Z,16.71
2022-08-17T16:04:01.694Z,16.58
2022-08-17T16:18:53.477Z,17.44
2022-08-17T16:33:58.423Z,17.27
2022-08-17T16:48:48.787Z,16.02
2022-08-17T17:03:48.821Z,14.56
2022-08-17T17:18:48.891Z,13.36
2022-08-17T17:33:48.490Z,15.3
2022-08-17T17:48:48.679Z,15.24
2022-08-17T18:03:48.715Z,14.59
2022-08-17T18:18:48.763Z,14.73
2022-08-17T18:33:48.940Z,14.73
2022-08-17T18:48:49.177Z,14.1
2022-08-17T19:03:48.572Z,14.94
2022-08-17T19:18:48.863Z,15.07
2022-08-17T19:33:48.780Z,13.92
2022-08-17T19:48:49.088Z,14.84
2022-08-17T20:03:49.014Z,15.04
2022-08-17T20:18:49.075Z,17.54
2022-08-17T20:33:48.791Z,17.7
2022-08-17T20:48:48.938Z,17.67
2022-08-17T21:03:50.766Z,16.09
2022-08-17T21:18:48.658Z,16.92
2022-08-17T21:33:49.226Z,17.24
2022-08-17T21:48:48.912Z,16.62
2022-08-17T22:03:48.610Z,17.28
2022-08-17T22:18:48.387Z,14.61
2022-08-17T22:33:48.681Z,10.75
2022-08-17T22:48:48.396Z,10.41
2022-08-17T23:03:49.165Z,9.56
2022-08-17T23:18:49.188Z,8.9
2022-08-17T23:33:49.057Z,8.36
2022-08-17T23:48:49.024Z,8.68
